createdAt,value
2023-03-03T00:00:52.876Z,97.92
2023-03-03T00:01:52.872Z,98.24
2023-03-03T00:02:52.848Z,97.71
2023-03-03T00:03:52.833Z,97.77
2023-03-03T00:04:52.818Z,97.56
2023-03-03T00:05:52.798Z,98.13
2023-03-03T00:06:52.921Z,97.67
2023-03-03T00:07:52.779Z,97.71
2023-03-03T00:08:52.758Z,97.81
2023-03-03T00:09:52.767Z,98.02
2023-03-03T00:10:52.763Z,98.24
2023-03-03T00:11:52.713Z,97.71
2023-03-03T00:12:52.713Z,97.96
2023-03-03T00:13:52.775Z,98.69
2023-03-03T00:14:52.673Z,98.28
2023-03-03T00:15:52.706Z,98.49
2023-03-03T00:16:52.642Z,98.69
2023-03-03T00:17:52.628Z,98.38
2023-03-03T00:18:52.612Z,98.38
2023-03-03T00:19:52.595Z,98.28
2023-03-03T00:20:52.579Z,98.49
2023-03-03T00:21:52.733Z,98.59
2023-03-03T00:22:52.551Z,98.86
2023-03-03T00:23:52.569Z,97.71
2023-03-03T00:24:52.522Z,98.34
2023-03-03T00:25:52.512Z,98.13
2023-03-03T00:26:52.490Z,97.96
2023-03-03T00:27:52.481Z,98.18
2023-03-03T00:28:52.466Z,98.55
2023-03-03T00:29:52.449Z,98.49
2023-03-03T00:30:52.477Z,98.18
2023-03-03T00:31:52.465Z,98.69
2023-03-03T00:32:52.429Z,98.38
2023-03-03T00:33:52.391Z,98.07
2023-03-03T00:34:52.715Z,98.28
2023-03-03T00:35:52.415Z,97.86
2023-03-03T00:36:52.351Z,98.59
2023-03-03T00:37:52.333Z,98.59
2023-03-03T00:38:52.318Z,98.59
2023-03-03T00:39:52.305Z,98.38
2023-03-03T00:40:52.291Z,98.69
2023-03-03T00:41:52.273Z,98.38
2023-03-03T00:42:52.260Z,98.55
2023-03-03T00:43:52.245Z,98.59
2023-03-03T00:44:52.235Z,98.65
2023-03-03T00:45:52.242Z,98.65
2023-03-03T00:46:52.206Z,98.59
2023-03-03T00:47:52.187Z,98.24
2023-03-03T00:48:52.169Z,97.92
2023-03-03T00:49:52.157Z,98.24
2023-03-03T00:50:52.143Z,98.02
2023-03-03T00:51:52.126Z,98.07
2023-03-03T00:52:52.114Z,97.92
2023-03-03T00:53:52.098Z,98.38
2023-03-03T00:54:52.084Z,98.24
2023-03-03T00:55:52.068Z,98.65
2023-03-03T00:56:52.057Z,97.81
2023-03-03T00:57:52.038Z,98.44
2023-03-03T00:58:52.022Z,98.34
2023-03-03T00:59:52.042Z,98.02
2023-03-03T01:00:51.992Z,98.55
2023-03-03T01:01:52.020Z,98.29
2023-03-03T01:02:52.021Z,98.55
2023-03-03T01:03:51.956Z,98.34
2023-03-03T01:04:51.946Z,98.24
2023-03-03T01:05:51.921Z,98.65
2023-03-03T01:06:51.916Z,97.92
2023-03-03T01:07:51.890Z,98.02
2023-03-03T01:08:51.883Z,98.13
2023-03-03T01:09:51.861Z,98.02
2023-03-03T01:10:51.861Z,97.61
2023-03-03T01:11:51.832Z,98.02
2023-03-03T01:12:51.817Z,98.02
2023-03-03T01:13:51.804Z,97.92
2023-03-03T01:14:51.792Z,98.44
2023-03-03T01:15:51.837Z,98.34
2023-03-03T01:16:51.760Z,98.24
2023-03-03T01:17:52.165Z,98.34
2023-03-03T01:18:51.741Z,98.24
2023-03-03T01:19:51.716Z,98.75
2023-03-03T01:20:51.701Z,97.77
2023-03-03T01:21:51.687Z,97.71
2023-03-03T01:22:51.672Z,97.81
2023-03-03T01:23:51.668Z,97.92
2023-03-03T01:24:51.648Z,98.75
2023-03-03T01:25:51.639Z,98.24
2023-03-03T01:26:51.613Z,98.34
2023-03-03T01:27:51.602Z,98.02
2023-03-03T01:28:51.588Z,98.02
2023-03-03T01:29:51.569Z,98.34
2023-03-03T01:30:51.561Z,98.34
2023-03-03T01:31:51.538Z,98.44
2023-03-03T01:32:51.529Z,98.24
2023-03-03T01:33:51.509Z,98.13
2023-03-03T01:34:51.505Z,98.13
2023-03-03T01:35:51.487Z,97.92
2023-03-03T01:36:51.467Z,98.02
2023-03-03T01:37:51.455Z,98.65
2023-03-03T01:38:51.440Z,98.34
2023-03-03T01:39:51.429Z,98.75
2023-03-03T01:40:51.407Z,98.34
2023-03-03T01:41:51.390Z,98.34
2023-03-03T01:42:51.383Z,98.02
2023-03-03T01:43:51.362Z,98.86
2023-03-03T01:44:51.353Z,97.81
2023-03-03T01:45:51.343Z,98.65
2023-03-03T01:46:51.365Z,98.34
2023-03-03T01:47:51.304Z,98.65
2023-03-03T01:48:51.287Z,98.65
2023-03-03T01:49:51.274Z,98.34
2023-03-03T01:50:51.274Z,98.24
2023-03-03T01:51:51.251Z,98.55
2023-03-03T01:52:51.228Z,98.02
2023-03-03T01:53:51.229Z,98.44
2023-03-03T01:54:51.201Z,97.81
2023-03-03T01:55:51.188Z,97.81
2023-03-03T01:56:51.179Z,98.24
2023-03-03T01:57:51.159Z,98.34
2023-03-03T01:58:51.146Z,98.13
2023-03-03T01:59:51.141Z,98.44
2023-03-03T02:00:51.114Z,98.02
2023-03-03T02:01:51.144Z,98.65
2023-03-03T02:02:51.113Z,97.71
2023-03-03T02:03:51.069Z,98.02
2023-03-03T02:04:51.053Z,98.24
2023-03-03T02:05:51.090Z,98.38
2023-03-03T02:06:51.029Z,98.34
2023-03-03T02:07:51.009Z,98.69
2023-03-03T02:08:50.997Z,98.02
2023-03-03T02:09:51.006Z,98.75
2023-03-03T02:10:50.969Z,98.75
2023-03-03T02:11:50.958Z,98.59
2023-03-03T02:12:50.956Z,98.59
2023-03-03T02:13:50.934Z,98.34
2023-03-03T02:14:50.920Z,98.65
2023-03-03T02:15:50.993Z,98.07
2023-03-03T02:16:50.885Z,98.24
2023-03-03T02:17:50.917Z,97.75
2023-03-03T02:18:50.859Z,97.75
2023-03-03T02:19:50.880Z,98.02
2023-03-03T02:20:50.872Z,98.24
2023-03-03T02:21:50.836Z,98.02
2023-03-03T02:22:50.836Z,98.18
2023-03-03T02:23:50.868Z,98.02
2023-03-03T02:24:50.804Z,97.96
2023-03-03T02:25:50.759Z,98.24
2023-03-03T02:26:50.751Z,98.59
2023-03-03T02:27:50.734Z,98.69
2023-03-03T02:28:50.711Z,98.49
2023-03-03T02:29:50.701Z,98.59
2023-03-03T02:30:50.685Z,99.11
2023-03-03T02:31:50.761Z,98.80
2023-03-03T02:32:50.655Z,99.11
2023-03-03T02:33:50.646Z,98.91
2023-03-03T02:34:50.641Z,99.22
2023-03-03T02:35:50.661Z,98.91
2023-03-03T02:36:50.602Z,98.80
2023-03-03T02:37:50.588Z,98.80
2023-03-03T02:38:50.569Z,98.91
2023-03-03T02:39:50.560Z,98.49
2023-03-03T02:40:50.542Z,98.91
2023-03-03T02:41:50.533Z,99.22
2023-03-03T02:42:50.514Z,98.69
2023-03-03T02:43:50.498Z,98.91
2023-03-03T02:44:50.484Z,98.91
2023-03-03T02:45:50.524Z,98.91
2023-03-03T02:46:50.458Z,98.80
2023-03-03T02:47:50.453Z,98.91
2023-03-03T02:48:50.423Z,99.48
2023-03-03T02:49:50.409Z,99.43
2023-03-03T02:50:50.402Z,99.54
2023-03-03T02:51:50.378Z,99.43
2023-03-03T02:52:50.411Z,99.32
2023-03-03T02:53:50.348Z,99.68
2023-03-03T02:54:50.344Z,99.43
2023-03-03T02:55:50.319Z,99.05
2023-03-03T02:56:50.302Z,99.37
2023-03-03T02:57:50.289Z,99.79
2023-03-03T02:58:50.276Z,99.99
2023-03-03T02:59:50.261Z,99.99
2023-03-03T03:00:50.285Z,99.99
2023-03-03T03:01:50.292Z,99.99
2023-03-03T03:02:50.213Z,99.90
2023-03-03T03:03:50.278Z,99.99
2023-03-03T03:04:50.192Z,99.99
2023-03-03T03:05:50.173Z,99.99
2023-03-03T03:06:50.155Z,99.99
2023-03-03T03:07:50.143Z,99.99
2023-03-03T03:08:50.122Z,99.99
2023-03-03T03:09:50.110Z,99.99
2023-03-03T03:10:50.097Z,99.99
2023-03-03T03:11:50.084Z,99.99
2023-03-03T03:12:50.063Z,99.99
2023-03-03T03:13:50.057Z,99.99
2023-03-03T03:14:50.033Z,99.99
2023-03-03T03:15:50.022Z,99.99
2023-03-03T03:16:50.070Z,99.99
2023-03-03T03:17:49.990Z,99.99
2023-03-03T03:18:49.972Z,99.99
2023-03-03T03:19:49.957Z,99.99
2023-03-03T03:20:49.945Z,99.99
2023-03-03T03:21:49.936Z,99.99
2023-03-03T03:22:49.927Z,99.99
2023-03-03T03:23:49.901Z,99.99
2023-03-03T03:24:49.882Z,99.99
2023-03-03T03:25:49.884Z,99.99
2023-03-03T03:26:49.856Z,99.99
2023-03-03T03:27:49.840Z,99.99
2023-03-03T03:28:49.902Z,99.99
2023-03-03T03:29:49.815Z,99.99
2023-03-03T03:30:49.829Z,99.99
2023-03-03T03:31:49.780Z,99.99
2023-03-03T03:32:49.763Z,99.99
2023-03-03T03:33:49.751Z,99.99
2023-03-03T03:34:49.737Z,99.99
2023-03-03T03:35:49.765Z,99.99
2023-03-03T03:36:49.705Z,99.99
2023-03-03T03:37:49.689Z,99.99
2023-03-03T03:38:49.683Z,99.99
2023-03-03T03:39:49.660Z,99.99
2023-03-03T03:40:49.649Z,99.99
2023-03-03T03:41:49.627Z,99.99
2023-03-03T03:42:49.613Z,99.99
2023-03-03T03:43:49.600Z,99.99
2023-03-03T03:44:49.587Z,99.99
2023-03-03T03:45:49.590Z,99.99
2023-03-03T03:46:49.562Z,99.99
2023-03-03T03:47:49.538Z,99.99
2023-03-03T03:48:49.526Z,99.99
2023-03-03T03:49:49.504Z,99.99
2023-03-03T03:50:49.493Z,99.99
2023-03-03T03:51:49.483Z,99.99
2023-03-03T03:52:49.462Z,99.99
2023-03-03T03:53:49.454Z,99.99
2023-03-03T03:54:49.437Z,99.99
2023-03-03T03:55:49.422Z,99.99
2023-03-03T03:56:49.409Z,99.99
2023-03-03T03:57:49.393Z,99.99
2023-03-03T03:58:49.382Z,99.99
2023-03-03T03:59:49.364Z,99.99
2023-03-03T04:00:49.369Z,99.99
2023-03-03T04:01:49.341Z,99.99
2023-03-03T04:02:49.403Z,99.99
2023-03-03T04:03:49.304Z,99.99
2023-03-03T04:04:49.286Z,99.99
2023-03-03T04:05:49.277Z,99.99
2023-03-03T04:06:49.261Z,99.99
2023-03-03T04:07:49.250Z,99.99
2023-03-03T04:08:49.235Z,99.99
2023-03-03T04:09:49.228Z,99.99
2023-03-03T04:10:49.220Z,99.99
2023-03-03T04:11:49.188Z,99.99
2023-03-03T04:12:49.170Z,99.99
2023-03-03T04:13:49.192Z,99.99
2023-03-03T04:14:49.142Z,99.99
2023-03-03T04:15:49.178Z,99.99
2023-03-03T04:16:49.125Z,99.99
2023-03-03T04:17:49.106Z,99.99
2023-03-03T04:18:49.084Z,99.99
2023-03-03T04:19:49.077Z,99.99
2023-03-03T04:20:49.053Z,99.99
2023-03-03T04:21:49.048Z,99.99
2023-03-03T04:22:49.030Z,99.99
2023-03-03T04:23:49.019Z,99.99
2023-03-03T04:24:48.994Z,99.99
2023-03-03T04:25:48.983Z,99.99
2023-03-03T04:26:48.963Z,99.99
2023-03-03T04:27:48.948Z,99.99
2023-03-03T04:28:48.933Z,99.99
2023-03-03T04:29:48.920Z,99.99
2023-03-03T04:30:48.906Z,99.99
2023-03-03T04:31:48.889Z,99.99
2023-03-03T04:32:48.880Z,99.99
2023-03-03T04:33:48.860Z,99.99
2023-03-03T04:34:53.098Z,99.99
2023-03-03T04:35:48.864Z,99.99
2023-03-03T04:36:48.826Z,99.99
2023-03-03T04:37:48.801Z,99.99
2023-03-03T04:38:48.784Z,99.99
2023-03-03T04:39:48.770Z,99.99
2023-03-03T04:40:48.756Z,99.99
2023-03-03T04:41:48.748Z,99.99
2023-03-03T04:42:48.732Z,99.99
2023-03-03T04:43:48.713Z,99.99
2023-03-03T04:44:48.708Z,99.99
2023-03-03T04:45:48.728Z,99.99
2023-03-03T04:46:48.672Z,99.99
2023-03-03T04:47:48.660Z,99.99
2023-03-03T04:48:48.656Z,99.99
2023-03-03T04:49:48.626Z,99.99
2023-03-03T04:50:48.615Z,99.99
2023-03-03T04:51:48.594Z,99.99
2023-03-03T04:52:48.584Z,99.99
2023-03-03T04:53:48.565Z,99.99
2023-03-03T04:54:48.564Z,99.99
2023-03-03T04:55:48.536Z,99.99
2023-03-03T04:56:48.516Z,99.99
2023-03-03T04:57:48.505Z,99.99
2023-03-03T04:58:48.492Z,99.99
2023-03-03T04:59:48.483Z,99.99
2023-03-03T05:00:48.465Z,99.99
2023-03-03T05:01:48.506Z,99.99
2023-03-03T05:02:48.430Z,99.99
2023-03-03T05:03:48.415Z,99.99
2023-03-03T05:04:48.483Z,99.99
2023-03-03T05:05:48.383Z,99.99
2023-03-03T05:06:48.367Z,99.99
2023-03-03T05:07:48.344Z,99.99
2023-03-03T05:08:48.340Z,99.99
2023-03-03T05:09:48.320Z,99.99
2023-03-03T05:10:48.309Z,99.99
2023-03-03T05:11:48.289Z,99.99
2023-03-03T05:12:48.264Z,99.99
2023-03-03T05:13:48.259Z,99.99
2023-03-03T05:14:48.237Z,99.99
2023-03-03T05:15:48.243Z,99.99
2023-03-03T05:16:48.207Z,99.99
2023-03-03T05:17:48.191Z,99.99
2023-03-03T05:18:48.178Z,99.99
2023-03-03T05:19:48.161Z,99.99
2023-03-03T05:20:48.151Z,99.99
2023-03-03T05:21:48.132Z,99.99
2023-03-03T05:22:48.115Z,99.99
2023-03-03T05:23:48.100Z,99.99
2023-03-03T05:24:48.083Z,99.99
2023-03-03T05:25:48.075Z,99.99
2023-03-03T05:26:48.060Z,99.99
2023-03-03T05:27:48.049Z,99.99
2023-03-03T05:28:48.025Z,99.99
2023-03-03T05:29:48.009Z,99.99
2023-03-03T05:30:47.998Z,99.99
2023-03-03T05:31:48.089Z,99.99
2023-03-03T05:32:47.962Z,99.99
2023-03-03T05:33:47.949Z,99.99
2023-03-03T05:34:47.934Z,99.99
2023-03-03T05:35:47.962Z,99.99
2023-03-03T05:36:47.909Z,99.99
2023-03-03T05:37:47.883Z,99.99
2023-03-03T05:38:47.871Z,99.99
2023-03-03T05:39:47.856Z,99.99
2023-03-03T05:40:47.846Z,99.99
2023-03-03T05:41:47.827Z,99.99
2023-03-03T05:42:47.843Z,99.99
2023-03-03T05:43:47.813Z,99.99
2023-03-03T05:44:47.779Z,99.99
2023-03-03T05:45:47.771Z,99.99
2023-03-03T05:46:47.803Z,99.99
2023-03-03T05:47:47.733Z,99.99
2023-03-03T05:48:47.717Z,99.99
2023-03-03T05:49:47.715Z,99.99
2023-03-03T05:50:47.688Z,99.99
2023-03-03T05:51:47.684Z,99.99
2023-03-03T05:53:47.650Z,99.99
2023-03-03T05:54:47.643Z,99.99
2023-03-03T05:55:47.631Z,99.99
2023-03-03T05:56:47.603Z,99.99
2023-03-03T05:57:47.594Z,99.99
2023-03-03T05:58:47.578Z,99.99
2023-03-03T06:00:08.587Z,99.99
2023-03-03T06:00:47.547Z,99.99
2023-03-03T06:01:47.591Z,99.99
2023-03-03T06:02:47.644Z,99.99
2023-03-03T06:03:47.512Z,99.99
2023-03-03T06:04:47.485Z,99.99
2023-03-03T06:06:08.491Z,99.99
2023-03-03T06:06:47.466Z,99.99
2023-03-03T06:07:47.473Z,99.99
2023-03-03T06:08:47.426Z,99.99
2023-03-03T06:09:47.419Z,99.99
2023-03-03T06:10:47.395Z,99.99
2023-03-03T06:12:08.397Z,99.99
2023-03-03T06:12:47.363Z,99.99
2023-03-03T06:13:47.354Z,99.99
2023-03-03T06:14:47.335Z,99.99
2023-03-03T06:15:47.321Z,99.99
2023-03-03T06:16:47.330Z,99.99
2023-03-03T06:18:08.311Z,99.99
2023-03-03T06:18:47.274Z,99.99
2023-03-03T06:19:47.263Z,99.99
2023-03-03T06:20:47.244Z,99.99
2023-03-03T06:21:47.232Z,99.99
2023-03-03T06:22:47.215Z,99.99
2023-03-03T06:24:08.208Z,99.99
2023-03-03T06:24:47.185Z,99.99
2023-03-03T06:25:47.175Z,99.99
2023-03-03T06:26:47.161Z,99.99
2023-03-03T06:27:47.151Z,99.99
2023-03-03T06:28:47.120Z,99.99
2023-03-03T06:30:08.146Z,99.99
2023-03-03T06:30:47.099Z,99.99
2023-03-03T06:31:47.148Z,99.99
2023-03-03T06:32:47.164Z,99.99
2023-03-03T06:33:47.048Z,99.99
2023-03-03T06:34:47.035Z,99.99
2023-03-03T06:36:08.019Z,99.99
2023-03-03T06:36:47.004Z,99.99
2023-03-03T06:37:47.002Z,99.99
2023-03-03T06:38:46.972Z,99.99
2023-03-03T06:39:46.960Z,99.99
2023-03-03T06:40:46.935Z,99.99
2023-03-03T06:42:07.931Z,99.99
2023-03-03T06:42:46.915Z,99.99
2023-03-03T06:43:46.899Z,99.99
2023-03-03T06:44:46.884Z,99.99
2023-03-03T06:45:46.925Z,99.99
2023-03-03T06:46:46.852Z,99.99
2023-03-03T06:48:07.839Z,99.99
2023-03-03T06:48:46.816Z,99.99
2023-03-03T06:49:46.816Z,99.99
2023-03-03T06:50:46.788Z,99.99
2023-03-03T06:51:46.774Z,99.99
2023-03-03T06:52:46.753Z,99.99
2023-03-03T06:54:07.746Z,99.99
2023-03-03T06:54:46.722Z,99.99
2023-03-03T06:55:46.711Z,99.99
2023-03-03T06:56:46.698Z,99.99
2023-03-03T06:57:46.679Z,99.99
2023-03-03T06:58:46.662Z,99.99
2023-03-03T07:00:07.661Z,99.99
2023-03-03T07:00:46.682Z,99.99
2023-03-03T07:01:46.629Z,99.99
2023-03-03T07:02:46.602Z,99.99
2023-03-03T07:03:46.600Z,99.99
2023-03-03T07:04:46.578Z,99.99
2023-03-03T07:06:07.570Z,99.99
2023-03-03T07:06:46.549Z,99.99
2023-03-03T07:07:46.558Z,99.99
2023-03-03T07:08:46.517Z,99.99
2023-03-03T07:09:46.506Z,99.99
2023-03-03T07:10:46.490Z,99.99
2023-03-03T07:12:07.487Z,99.99
2023-03-03T07:12:46.462Z,99.99
2023-03-03T07:13:46.452Z,99.99
2023-03-03T07:14:46.432Z,99.99
2023-03-03T07:15:46.431Z,99.99
2023-03-03T07:16:46.538Z,99.99
2023-03-03T07:18:07.398Z,99.99
2023-03-03T07:18:46.383Z,99.99
2023-03-03T07:19:46.360Z,99.99
2023-03-03T07:20:46.347Z,99.99
2023-03-03T07:21:46.335Z,99.99
2023-03-03T07:22:46.346Z,99.99
2023-03-03T07:24:07.309Z,99.99
2023-03-03T07:24:46.286Z,99.99
2023-03-03T07:25:46.276Z,99.99
2023-03-03T07:26:46.264Z,99.99
2023-03-03T07:27:46.244Z,99.99
2023-03-03T07:28:46.231Z,99.99
2023-03-03T07:30:07.221Z,99.99
2023-03-03T07:30:46.253Z,99.99
2023-03-03T07:31:46.183Z,99.99
2023-03-03T07:32:46.208Z,99.99
2023-03-03T07:33:46.169Z,99.99
2023-03-03T07:34:46.159Z,99.99
2023-03-03T07:36:07.130Z,99.99
2023-03-03T07:36:46.122Z,99.99
2023-03-03T07:37:46.101Z,99.99
2023-03-03T07:38:46.090Z,99.99
2023-03-03T07:39:46.101Z,99.99
2023-03-03T07:40:46.051Z,99.99
2023-03-03T07:42:07.042Z,99.99
2023-03-03T07:42:46.026Z,99.99
2023-03-03T07:43:46.008Z,99.99
2023-03-03T07:44:46.006Z,99.99
2023-03-03T07:45:46.006Z,99.99
2023-03-03T07:46:45.973Z,99.99
2023-03-03T07:48:06.949Z,99.99
2023-03-03T07:48:45.935Z,99.99
2023-03-03T07:49:45.928Z,99.99
2023-03-03T07:50:45.908Z,99.99
2023-03-03T07:51:45.904Z,99.99
2023-03-03T07:52:45.876Z,99.99
2023-03-03T07:54:06.860Z,99.99
2023-03-03T07:54:45.864Z,99.99
2023-03-03T07:55:45.846Z,99.99
2023-03-03T07:56:45.816Z,99.99
2023-03-03T07:57:45.812Z,99.99
2023-03-03T07:58:45.799Z,99.99
2023-03-03T08:00:06.772Z,99.99
2023-03-03T08:00:45.776Z,99.99
2023-03-03T08:01:45.749Z,99.99
2023-03-03T08:02:45.729Z,99.99
2023-03-03T08:03:45.713Z,99.99
2023-03-03T08:04:45.782Z,99.99
2023-03-03T08:06:06.684Z,99.99
2023-03-03T08:06:45.670Z,99.99
2023-03-03T08:07:45.650Z,99.99
2023-03-03T08:08:45.712Z,99.99
2023-03-03T08:09:45.620Z,99.99
2023-03-03T08:10:45.633Z,99.99
2023-03-03T08:12:06.603Z,99.80
2023-03-03T08:12:45.575Z,99.99
2023-03-03T08:13:45.559Z,99.99
2023-03-03T08:14:45.548Z,99.99
2023-03-03T08:15:45.545Z,99.99
2023-03-03T08:16:45.594Z,99.99
2023-03-03T08:18:06.494Z,99.24
2023-03-03T08:18:45.493Z,98.44
2023-03-03T08:19:45.468Z,99.18
2023-03-03T08:20:45.490Z,99.02
2023-03-03T08:21:45.437Z,98.82
2023-03-03T08:22:45.436Z,98.50
2023-03-03T08:24:06.400Z,98.29
2023-03-03T08:24:45.408Z,98.29
2023-03-03T08:25:45.378Z,98.29
2023-03-03T08:26:45.359Z,98.50
2023-03-03T08:27:45.337Z,98.61
2023-03-03T08:28:45.327Z,99.13
2023-03-03T08:30:06.313Z,98.50
2023-03-03T08:30:45.361Z,98.50
2023-03-03T08:31:45.317Z,98.61
2023-03-03T08:32:45.279Z,98.67
2023-03-03T08:33:45.244Z,98.14
2023-03-03T08:34:45.236Z,98.35
2023-03-03T08:36:06.239Z,97.83
2023-03-03T08:36:45.208Z,98.14
2023-03-03T08:37:45.199Z,98.25
2023-03-03T08:38:45.189Z,98.25
2023-03-03T08:39:45.158Z,98.56
2023-03-03T08:40:45.146Z,98.14
2023-03-03T08:42:06.158Z,97.83
2023-03-03T08:42:45.121Z,97.94
2023-03-03T08:43:45.107Z,98.35
2023-03-03T08:44:45.086Z,98.31
2023-03-03T08:45:45.077Z,98.52
2023-03-03T08:46:45.110Z,97.78
2023-03-03T08:48:06.288Z,97.89
2023-03-03T08:48:45.039Z,97.58
2023-03-03T08:49:45.013Z,97.58
2023-03-03T08:50:45.010Z,97.85
2023-03-03T08:51:44.989Z,97.32
2023-03-03T08:52:44.973Z,96.91
2023-03-03T08:54:05.966Z,97.01
2023-03-03T08:54:44.951Z,97.22
2023-03-03T08:55:44.929Z,96.97
2023-03-03T08:56:44.919Z,96.49
2023-03-03T08:57:44.935Z,96.07
2023-03-03T08:58:59.605Z,95.97
2023-03-03T09:00:05.877Z,95.97
2023-03-03T09:00:47.285Z,96.28
2023-03-03T09:01:44.923Z,96.07
2023-03-03T09:02:44.834Z,96.49
2023-03-03T09:03:44.824Z,96.49
2023-03-03T09:04:44.872Z,96.44
2023-03-03T09:06:05.793Z,96.23
2023-03-03T09:06:44.778Z,96.03
2023-03-03T09:07:46.450Z,95.40
2023-03-03T09:08:45.187Z,95.09
2023-03-03T09:09:44.739Z,95.23
2023-03-03T09:10:44.727Z,94.98
2023-03-03T09:12:05.709Z,95.23
2023-03-03T09:12:44.936Z,95.44
2023-03-03T09:13:44.680Z,95.40
2023-03-03T09:14:44.665Z,95.19
2023-03-03T09:15:44.649Z,94.98
2023-03-03T09:16:44.645Z,95.50
2023-03-03T09:18:05.623Z,95.09
2023-03-03T09:18:44.613Z,95.29
2023-03-03T09:19:44.593Z,95.29
2023-03-03T09:20:44.960Z,95.09
2023-03-03T09:21:44.571Z,95.40
2023-03-03T09:22:44.605Z,94.98
2023-03-03T09:24:05.559Z,95.13
2023-03-03T09:24:44.557Z,95.29
2023-03-03T09:25:44.511Z,95.23
2023-03-03T09:26:44.495Z,95.23
2023-03-03T09:27:44.496Z,95.65
2023-03-03T09:28:44.475Z,96.07
2023-03-03T09:30:05.471Z,96.03
2023-03-03T09:30:44.444Z,95.50
2023-03-03T09:31:44.493Z,95.19
2023-03-03T09:32:44.443Z,95.50
2023-03-03T09:33:44.437Z,95.56
2023-03-03T09:34:44.380Z,95.46
2023-03-03T09:36:05.443Z,95.67
2023-03-03T09:36:44.367Z,95.46
2023-03-03T09:37:44.341Z,95.10
2023-03-03T09:38:44.339Z,94.48
2023-03-03T09:39:44.387Z,94.69
2023-03-03T09:40:44.309Z,94.90
2023-03-03T09:42:05.289Z,94.02
2023-03-03T09:42:44.301Z,93.81
2023-03-03T09:43:44.306Z,93.29
2023-03-03T09:44:44.241Z,92.97
2023-03-03T09:45:44.235Z,93.08
2023-03-03T09:46:44.237Z,92.97
2023-03-03T09:48:05.240Z,92.87
2023-03-03T09:48:44.188Z,92.81
2023-03-03T09:49:44.177Z,92.97
2023-03-03T09:50:44.160Z,92.87
2023-03-03T09:51:44.191Z,92.87
2023-03-03T09:52:44.135Z,92.66
2023-03-03T09:54:05.121Z,92.87
2023-03-03T09:54:44.111Z,92.66
2023-03-03T09:55:44.096Z,92.46
2023-03-03T09:56:44.074Z,92.87
2023-03-03T09:57:44.067Z,93.40
2023-03-03T09:58:44.052Z,93.40
2023-03-03T10:00:05.251Z,93.40
2023-03-03T10:00:44.040Z,92.77
2023-03-03T10:01:44.008Z,92.97
2023-03-03T10:02:44.010Z,92.87
2023-03-03T10:03:44.028Z,92.87
2023-03-03T10:04:43.974Z,92.97
2023-03-03T10:06:05.057Z,92.77
2023-03-03T10:06:43.957Z,92.77
2023-03-03T10:07:43.928Z,93.18
2023-03-03T10:08:43.916Z,93.14
2023-03-03T10:09:43.901Z,92.35
2023-03-03T10:10:43.892Z,92.25
2023-03-03T10:12:04.881Z,92.21
2023-03-03T10:12:43.867Z,92.41
2023-03-03T10:13:43.856Z,92.83
2023-03-03T10:14:43.832Z,92.10
2023-03-03T10:15:43.932Z,92.10
2023-03-03T10:16:43.902Z,92.41
2023-03-03T10:18:04.800Z,92.41
2023-03-03T10:18:43.786Z,92.00
2023-03-03T10:19:43.767Z,91.85
2023-03-03T10:20:50.195Z,92.41
2023-03-03T10:21:43.870Z,92.06
2023-03-03T10:22:43.724Z,92.16
2023-03-03T10:24:04.717Z,91.85
2023-03-03T10:24:43.697Z,91.75
2023-03-03T10:25:43.743Z,91.96
2023-03-03T10:26:46.413Z,91.85
2023-03-03T10:27:43.667Z,92.27
2023-03-03T10:28:43.663Z,92.47
2023-03-03T10:30:04.664Z,92.47
2023-03-03T10:30:54.811Z,91.53
2023-03-03T10:31:43.696Z,91.33
2023-03-03T10:32:43.799Z,91.18
2023-03-03T10:33:43.680Z,91.02
2023-03-03T10:34:43.567Z,91.08
2023-03-03T10:36:07.404Z,91.50
2023-03-03T10:36:43.541Z,91.08
2023-03-03T10:37:43.529Z,90.87
2023-03-03T10:38:43.511Z,90.41
2023-03-03T10:39:43.501Z,90.77
2023-03-03T10:40:43.505Z,90.62
2023-03-03T10:42:04.482Z,90.52
2023-03-03T10:42:44.959Z,90.20
2023-03-03T10:43:43.440Z,90.20
2023-03-03T10:44:43.432Z,90.31
2023-03-03T10:45:43.500Z,90.31
2023-03-03T10:46:43.408Z,90.52
2023-03-03T10:48:04.405Z,90.20
2023-03-03T10:48:43.380Z,90.31
2023-03-03T10:49:43.364Z,90.10
2023-03-03T10:50:43.358Z,90.00
2023-03-03T10:51:43.337Z,90.62
2023-03-03T10:52:43.332Z,90.52
2023-03-03T10:54:04.327Z,90.37
2023-03-03T10:54:43.303Z,90.37
2023-03-03T10:55:43.287Z,89.95
2023-03-03T10:56:52.902Z,89.95
2023-03-03T10:57:43.267Z,89.95
2023-03-03T10:58:43.384Z,90.06
2023-03-03T11:00:04.245Z,90.58
2023-03-03T11:00:43.267Z,90.26
2023-03-03T11:01:43.211Z,90.16
2023-03-03T11:02:43.279Z,89.92
2023-03-03T11:03:43.233Z,89.54
2023-03-03T11:04:43.204Z,89.95
2023-03-03T11:06:04.294Z,89.43
2023-03-03T11:06:43.153Z,89.33
2023-03-03T11:07:43.131Z,89.23
2023-03-03T11:08:43.124Z,89.33
2023-03-03T11:09:43.108Z,89.58
2023-03-03T11:10:43.095Z,89.79
2023-03-03T11:12:04.088Z,90.14
2023-03-03T11:12:43.069Z,90.45
2023-03-03T11:13:43.057Z,90.66
2023-03-03T11:14:43.043Z,90.77
2023-03-03T11:15:43.032Z,90.87
2023-03-03T11:16:43.056Z,91.18
2023-03-03T11:18:04.021Z,91.18
2023-03-03T11:18:42.998Z,91.39
2023-03-03T11:19:42.981Z,91.39
2023-03-03T11:20:42.983Z,90.83
2023-03-03T11:21:42.956Z,90.83
2023-03-03T11:22:42.951Z,90.72
2023-03-03T11:24:04.032Z,90.89
2023-03-03T11:24:42.988Z,90.79
2023-03-03T11:25:42.904Z,90.16
2023-03-03T11:26:43.120Z,90.26
2023-03-03T11:27:42.871Z,90.16
2023-03-03T11:28:42.867Z,89.92
2023-03-03T11:30:03.850Z,89.29
2023-03-03T11:30:43.129Z,88.98
2023-03-03T11:31:42.822Z,89.12
2023-03-03T11:32:42.803Z,89.85
2023-03-03T11:33:42.819Z,89.81
2023-03-03T11:34:42.783Z,89.81
2023-03-03T11:36:03.839Z,89.85
2023-03-03T11:36:42.759Z,89.18
2023-03-03T11:37:42.747Z,89.23
2023-03-03T11:38:42.729Z,89.95
2023-03-03T11:39:42.717Z,90.06
2023-03-03T11:40:42.709Z,90.26
2023-03-03T11:42:03.700Z,90.69
2023-03-03T11:42:42.682Z,90.41
2023-03-03T11:43:42.666Z,90.20
2023-03-03T11:44:42.661Z,90.47
2023-03-03T11:45:42.640Z,90.37
2023-03-03T11:46:42.625Z,90.47
2023-03-03T11:48:03.632Z,90.47
2023-03-03T11:48:42.605Z,90.79
2023-03-03T11:49:42.589Z,90.26
2023-03-03T11:50:42.579Z,90.47
2023-03-03T11:51:42.571Z,90.16
2023-03-03T11:52:42.552Z,90.47
2023-03-03T11:54:03.543Z,90.47
2023-03-03T11:54:42.529Z,90.44
2023-03-03T11:55:42.510Z,90.23
2023-03-03T11:56:42.500Z,90.02
2023-03-03T11:57:42.482Z,89.87
2023-03-03T11:58:42.470Z,89.67
2023-03-03T12:00:03.475Z,89.46
2023-03-03T12:00:42.448Z,89.67
2023-03-03T12:01:42.433Z,89.87
2023-03-03T12:02:42.488Z,89.56
2023-03-03T12:03:42.413Z,89.04
2023-03-03T12:04:42.394Z,88.69
2023-03-03T12:06:03.454Z,89.11
2023-03-03T12:06:42.367Z,88.28
2023-03-03T12:07:42.348Z,87.86
2023-03-03T12:08:42.346Z,87.96
2023-03-03T12:09:42.330Z,87.86
2023-03-03T12:10:42.327Z,87.76
2023-03-03T12:12:03.307Z,88.48
2023-03-03T12:12:42.294Z,88.48
2023-03-03T12:13:42.278Z,87.86
2023-03-03T12:14:42.270Z,88.00
2023-03-03T12:15:42.291Z,88.21
2023-03-03T12:16:42.239Z,87.76
2023-03-03T12:18:03.227Z,89.36
2023-03-03T12:18:42.220Z,89.00
2023-03-03T12:19:42.227Z,89.21
2023-03-03T12:20:42.187Z,89.11
2023-03-03T12:21:42.278Z,89.21
2023-03-03T12:22:42.180Z,89.52
2023-03-03T12:24:04.752Z,89.11
2023-03-03T12:24:42.160Z,89.42
2023-03-03T12:25:42.143Z,89.69
2023-03-03T12:26:42.130Z,88.96
2023-03-03T12:27:42.343Z,88.23
2023-03-03T12:28:42.105Z,88.54
2023-03-03T12:30:05.191Z,87.61
2023-03-03T12:30:42.087Z,87.40
2023-03-03T12:31:42.161Z,87.86
2023-03-03T12:32:42.078Z,87.96
2023-03-03T12:33:42.042Z,87.86
2023-03-03T12:34:42.700Z,87.61
2023-03-03T12:36:03.095Z,87.71
2023-03-03T12:36:42.010Z,88.34
2023-03-03T12:37:41.989Z,87.03
2023-03-03T12:38:41.982Z,88.07
2023-03-03T12:39:41.964Z,88.23
2023-03-03T12:40:41.957Z,88.13
2023-03-03T12:42:05.239Z,88.02
2023-03-03T12:42:41.935Z,88.02
2023-03-03T12:43:41.919Z,88.48
2023-03-03T12:44:41.935Z,88.38
2023-03-03T12:45:41.895Z,88.23
2023-03-03T12:46:41.941Z,88.13
2023-03-03T12:48:02.871Z,88.23
2023-03-03T12:48:41.864Z,88.02
2023-03-03T12:49:43.467Z,87.92
2023-03-03T12:50:41.844Z,87.92
2023-03-03T12:51:41.823Z,88.13
2023-03-03T12:52:41.808Z,87.92
2023-03-03T12:54:02.799Z,87.82